Old Fields, West Virginia
Current Conditions -  °F | °C
As of 9:35 AM on Monday 22 Dec 2014 (Local Time) from KW99 Reporting Station
Haze Haze  
Wind Chill: 30°   Ceiling: 2600
Heat Index: 30°   Visibility: 5mi
Dew Point: 26°   Wind: 0mph
Humidity: 83%   Direction: NA
Pressure: 30.25"   Gusts: NA
Location:  39.14°N, 78.95°W
Report Text: KW99 221435Z AUTO 00000KT 5SM HZ BKN026 BKN065 OVC090 M01/M03 A3025 RMK AO2 T10101035
Loading
Personal Weather Stations






























Interactive Weather Map New forecast layout! Learn more

10-Day Weather Forecast

Advertisements
Track Severe Weather on mobile